createdAt,value
2018-09-24T00:00:12.113Z,100.00
2018-09-24T00:02:40.995Z,100.00
2018-09-24T00:05:10.092Z,100.00
2018-09-24T00:07:39.122Z,100.00
2018-09-24T00:10:08.143Z,100.00
2018-09-24T00:12:37.326Z,100.00
2018-09-24T00:15:06.345Z,100.00
2018-09-24T00:17:35.486Z,100.00
2018-09-24T00:20:04.549Z,100.00
2018-09-24T00:22:33.656Z,100.00
2018-09-24T00:25:02.930Z,100.00
2018-09-24T00:27:32.111Z,100.00
2018-09-24T00:30:01.200Z,100.00
2018-09-24T00:32:30.269Z,100.00
2018-09-24T00:34:59.465Z,100.00
2018-09-24T00:37:28.610Z,100.00
2018-09-24T00:39:57.650Z,100.00
2018-09-24T00:42:27.329Z,100.00
2018-09-24T00:44:56.396Z,100.00
2018-09-24T00:47:25.534Z,100.00
2018-09-24T00:49:54.683Z,100.00
2018-09-24T00:52:23.750Z,100.00
2018-09-24T00:54:52.805Z,100.00
2018-09-24T00:57:21.883Z,100.00
2018-09-24T00:59:50.948Z,100.00
2018-09-24T01:02:20.095Z,100.00
2018-09-24T01:04:49.148Z,100.00
2018-09-24T01:07:18.282Z,100.00
2018-09-24T01:09:47.744Z,100.00
2018-09-24T01:12:16.881Z,100.00
2018-09-24T01:14:45.925Z,100.00
2018-09-24T01:17:15.171Z,100.00
2018-09-24T01:19:44.614Z,100.00
2018-09-24T01:22:13.729Z,100.00
2018-09-24T01:24:42.865Z,100.00
2018-09-24T01:27:11.946Z,100.00
2018-09-24T01:29:41.092Z,100.00
2018-09-24T01:32:10.293Z,100.00
2018-09-24T01:34:39.339Z,100.00
2018-09-24T01:37:08.486Z,100.00
2018-09-24T01:39:37.596Z,100.00
2018-09-24T01:42:06.666Z,100.00
2018-09-24T01:44:36.147Z,100.00
2018-09-24T01:47:05.167Z,100.00
2018-09-24T01:49:34.655Z,100.00
2018-09-24T01:52:03.998Z,100.00
2018-09-24T01:54:33.034Z,100.00
2018-09-24T01:57:02.309Z,100.00
2018-09-24T01:59:31.423Z,100.00
2018-09-24T02:02:00.525Z,100.00
2018-09-24T02:04:29.766Z,100.00
2018-09-24T02:07:02.054Z,100.00
2018-09-24T02:09:31.575Z,100.00
2018-09-24T02:12:06.198Z,100.00
2018-09-24T02:14:35.637Z,100.00
2018-09-24T02:17:04.774Z,100.00
2018-09-24T02:19:34.226Z,100.00
2018-09-24T02:22:03.362Z,100.00
2018-09-24T02:24:32.706Z,100.00
2018-09-24T02:27:01.847Z,100.00
2018-09-24T02:29:30.982Z,100.00
2018-09-24T02:32:00.108Z,100.00
2018-09-24T02:34:29.416Z,100.00
2018-09-24T02:36:58.538Z,100.00
2018-09-24T02:39:27.601Z,100.00
2018-09-24T02:41:57.255Z,100.00
2018-09-24T02:44:27.877Z,100.00
2018-09-24T02:46:57.760Z,100.00
2018-09-24T02:49:26.752Z,100.00
2018-09-24T02:51:57.232Z,100.00
2018-09-24T02:54:26.375Z,100.00
2018-09-24T02:56:55.900Z,100.00
2018-09-24T02:59:24.883Z,100.00
2018-09-24T03:01:53.940Z,100.00
2018-09-24T03:04:23.413Z,100.00
2018-09-24T03:06:52.837Z,100.00
2018-09-24T03:09:22.066Z,100.00
2018-09-24T03:11:51.206Z,100.00
2018-09-24T03:14:27.829Z,100.00
2018-09-24T03:16:57.302Z,100.00
2018-09-24T03:19:26.375Z,100.00
2018-09-24T03:21:55.518Z,100.00
2018-09-24T03:24:25.135Z,100.00
2018-09-24T03:26:54.482Z,100.00
2018-09-24T03:29:24.753Z,100.00
2018-09-24T03:31:54.144Z,100.00
2018-09-24T03:34:23.193Z,100.00
2018-09-24T03:36:52.730Z,100.00
2018-09-24T03:39:21.921Z,100.00
2018-09-24T03:41:51.264Z,100.00
2018-09-24T03:44:20.404Z,100.00
2018-09-24T03:46:49.387Z,100.00
2018-09-24T03:49:18.555Z,100.00
2018-09-24T03:51:48.142Z,100.00
2018-09-24T03:54:17.397Z,100.00
2018-09-24T03:56:46.623Z,100.00
2018-09-24T03:59:15.630Z,100.00
2018-09-24T04:01:44.765Z,100.00
2018-09-24T04:04:18.732Z,100.00
2018-09-24T04:06:52.686Z,100.00
2018-09-24T04:09:27.238Z,100.00
2018-09-24T04:12:01.608Z,100.00
2018-09-24T04:14:35.530Z,100.00
2018-09-24T04:17:09.470Z,100.00
2018-09-24T04:19:44.604Z,100.00
2018-09-24T04:22:18.588Z,100.00
2018-09-24T04:24:52.521Z,100.00
2018-09-24T04:27:26.941Z,100.00
2018-09-24T04:30:00.916Z,100.00
2018-09-24T04:32:34.929Z,100.00
2018-09-24T04:35:08.894Z,100.00
2018-09-24T04:37:42.986Z,100.00
2018-09-24T04:40:17.099Z,100.00
2018-09-24T04:42:51.191Z,100.00
2018-09-24T04:45:25.224Z,100.00
2018-09-24T04:47:59.662Z,100.00
2018-09-24T04:50:33.680Z,100.00
2018-09-24T04:53:07.667Z,100.00
2018-09-24T04:55:41.861Z,100.00
2018-09-24T04:58:15.794Z,100.00
2018-09-24T05:00:50.233Z,100.00
2018-09-24T05:03:24.440Z,100.00
2018-09-24T05:05:59.970Z,100.00
2018-09-24T05:08:33.947Z,100.00
2018-09-24T05:11:08.538Z,100.00
2018-09-24T05:13:42.767Z,100.00
2018-09-24T05:16:16.871Z,100.00
2018-09-24T05:18:50.870Z,100.00
2018-09-24T05:21:24.945Z,100.00
2018-09-24T05:23:59.303Z,100.00
2018-09-24T05:26:33.354Z,100.00
2018-09-24T05:29:07.582Z,100.00
2018-09-24T05:31:41.657Z,100.00
2018-09-24T05:34:15.648Z,100.00
2018-09-24T05:36:49.629Z,100.00
2018-09-24T05:39:23.807Z,100.00
2018-09-24T05:41:57.760Z,100.00
2018-09-24T05:44:31.681Z,100.00
2018-09-24T05:47:05.865Z,100.00
2018-09-24T05:49:40.307Z,100.00
2018-09-24T05:52:14.241Z,100.00
2018-09-24T05:54:48.475Z,100.00
2018-09-24T05:57:22.525Z,100.00
2018-09-24T05:59:56.510Z,100.00
2018-09-24T06:02:30.643Z,100.00
2018-09-24T06:05:04.628Z,100.00
2018-09-24T06:07:38.579Z,100.00
2018-09-24T06:10:13.115Z,100.00
2018-09-24T06:12:47.112Z,100.00
2018-09-24T06:15:21.528Z,100.00
2018-09-24T06:17:55.615Z,100.00
2018-09-24T06:20:29.951Z,100.00
2018-09-24T06:23:04.714Z,100.00
2018-09-24T06:25:38.670Z,100.00
2018-09-24T06:28:12.859Z,100.00
2018-09-24T06:30:47.023Z,100.00
2018-09-24T06:33:21.440Z,100.00
2018-09-24T06:35:55.748Z,100.00
2018-09-24T06:38:30.058Z,100.00
2018-09-24T06:41:04.166Z,100.00
2018-09-24T06:43:38.323Z,100.00
2018-09-24T06:46:12.598Z,100.00
2018-09-24T06:48:47.596Z,100.00
2018-09-24T06:51:21.566Z,100.00
2018-09-24T06:53:55.667Z,100.00
2018-09-24T06:56:29.706Z,100.00
2018-09-24T06:59:03.850Z,100.00
2018-09-24T07:01:37.842Z,100.00
2018-09-24T07:04:11.964Z,100.00
2018-09-24T07:06:45.973Z,100.00
2018-09-24T07:09:20.052Z,100.00
2018-09-24T07:11:54.083Z,100.00
2018-09-24T07:14:28.429Z,100.00
2018-09-24T07:17:02.755Z,100.00
2018-09-24T07:19:37.140Z,100.00
2018-09-24T07:22:11.208Z,100.00
2018-09-24T07:24:45.555Z,100.00
2018-09-24T07:27:19.578Z,100.00
2018-09-24T07:29:53.658Z,100.00
2018-09-24T07:32:27.967Z,100.00
2018-09-24T07:35:02.092Z,100.00
2018-09-24T07:37:36.799Z,100.00
2018-09-24T07:40:11.250Z,100.00
2018-09-24T07:42:45.195Z,100.00
2018-09-24T07:45:19.105Z,100.00
2018-09-24T07:47:53.421Z,100.00
2018-09-24T07:50:27.584Z,100.00
2018-09-24T07:53:01.924Z,100.00
2018-09-24T07:55:36.188Z,100.00
2018-09-24T07:58:10.691Z,100.00
2018-09-24T08:00:45.203Z,100.00
2018-09-24T08:03:19.400Z,100.00
2018-09-24T08:05:53.515Z,100.00
2018-09-24T08:08:27.623Z,100.00
2018-09-24T08:11:01.852Z,100.00
2018-09-24T08:13:36.283Z,96.79
2018-09-24T08:16:10.494Z,95.78
2018-09-24T08:18:44.531Z,96.00
2018-09-24T08:21:18.899Z,91.08
2018-09-24T08:23:53.354Z,91.46
2018-09-24T08:26:27.293Z,89.34
2018-09-24T08:29:01.489Z,88.58
2018-09-24T08:31:35.563Z,88.31
2018-09-24T08:34:09.526Z,84.32
2018-09-24T08:36:43.894Z,84.09
2018-09-24T08:39:17.956Z,83.57
2018-09-24T08:41:51.991Z,82.65
2018-09-24T08:44:26.034Z,83.75
2018-09-24T08:47:00.254Z,83.50
2018-09-24T08:49:34.577Z,84.10
2018-09-24T08:52:08.914Z,81.80
2018-09-24T08:54:43.272Z,82.48
2018-09-24T08:57:17.302Z,80.83
2018-09-24T08:59:51.444Z,80.61
2018-09-24T09:02:25.564Z,79.40
2018-09-24T09:05:00.215Z,78.15
2018-09-24T09:07:34.531Z,77.82
2018-09-24T09:10:08.638Z,76.70
2018-09-24T09:12:42.722Z,74.96
2018-09-24T09:15:16.873Z,72.26
2018-09-24T09:17:51.094Z,72.13
2018-09-24T09:20:25.403Z,70.30
2018-09-24T09:22:59.696Z,66.87
2018-09-24T09:25:33.868Z,63.76
2018-09-24T09:28:07.942Z,60.26
2018-09-24T09:30:42.066Z,60.91
2018-09-24T09:33:16.282Z,60.87
2018-09-24T09:35:50.294Z,61.84
2018-09-24T09:38:24.312Z,61.03
2018-09-24T09:40:58.717Z,58.26
2018-09-24T09:43:33.094Z,58.89
2018-09-24T09:46:07.063Z,58.01
2018-09-24T09:48:41.347Z,57.92
2018-09-24T09:51:15.694Z,58.22
2018-09-24T09:53:49.842Z,57.26
2018-09-24T09:56:23.881Z,57.24
2018-09-24T09:58:57.891Z,57.41
2018-09-24T10:01:32.021Z,56.24
2018-09-24T10:04:06.151Z,55.64
2018-09-24T10:06:40.121Z,54.82
2018-09-24T10:09:14.427Z,55.46
2018-09-24T10:11:48.896Z,55.33
2018-09-24T10:14:22.921Z,58.81
2018-09-24T10:16:57.038Z,60.85
2018-09-24T10:19:31.113Z,63.16
2018-09-24T10:22:05.308Z,64.41
2018-09-24T10:24:39.918Z,65.61
2018-09-24T10:27:14.420Z,64.39
2018-09-24T10:29:48.426Z,63.44
2018-09-24T10:32:22.674Z,63.70
2018-09-24T10:34:56.667Z,65.38
2018-09-24T10:37:30.731Z,64.21
2018-09-24T10:40:04.855Z,63.90
2018-09-24T10:42:38.970Z,65.01
2018-09-24T10:45:13.250Z,65.86
2018-09-24T10:47:47.233Z,67.91
2018-09-24T10:50:21.407Z,69.13
2018-09-24T10:52:55.470Z,70.25
2018-09-24T10:55:29.515Z,71.39
2018-09-24T10:58:03.718Z,72.93
2018-09-24T11:00:37.894Z,77.36
2018-09-24T11:03:11.891Z,77.50
2018-09-24T11:05:46.286Z,78.20
2018-09-24T11:08:20.350Z,79.72
2018-09-24T11:10:54.347Z,81.77
2018-09-24T11:13:28.796Z,83.52
2018-09-24T11:16:03.180Z,85.70
2018-09-24T11:18:37.186Z,86.18
2018-09-24T11:21:11.224Z,87.33
2018-09-24T11:23:45.213Z,88.08
2018-09-24T11:28:53.740Z,92.32
2018-09-24T11:31:27.790Z,93.01
2018-09-24T11:34:01.898Z,93.73
2018-09-24T11:36:35.920Z,94.10
2018-09-24T11:39:12.062Z,94.20
2018-09-24T11:41:46.175Z,91.38
2018-09-24T11:44:20.372Z,89.61
2018-09-24T11:46:54.398Z,85.87
2018-09-24T11:49:28.403Z,86.69
2018-09-24T11:52:02.724Z,87.78
2018-09-24T11:54:36.950Z,88.52
2018-09-24T11:57:11.215Z,85.83
2018-09-24T11:59:45.115Z,85.48
2018-09-24T12:02:19.176Z,86.51
2018-09-24T12:04:53.588Z,86.15
2018-09-24T12:07:28.128Z,86.38
2018-09-24T12:10:02.617Z,84.86
2018-09-24T12:12:36.771Z,85.16
2018-09-24T12:15:11.391Z,82.90
2018-09-24T12:17:45.302Z,83.16
2018-09-24T12:20:19.382Z,84.25
2018-09-24T12:22:53.536Z,86.32
2018-09-24T12:25:27.460Z,88.43
2018-09-24T12:28:01.469Z,90.12
2018-09-24T12:30:35.575Z,90.33
2018-09-24T12:33:09.879Z,88.86
2018-09-24T12:35:44.330Z,88.92
2018-09-24T12:38:18.619Z,89.59
2018-09-24T12:40:52.535Z,90.02
2018-09-24T12:43:26.482Z,91.22
2018-09-24T12:46:00.571Z,91.19
2018-09-24T12:48:34.821Z,96.20
2018-09-24T12:51:08.955Z,94.67
2018-09-24T12:53:42.984Z,94.86
2018-09-24T12:56:16.949Z,92.87
2018-09-24T12:58:50.903Z,92.26
2018-09-24T13:01:25.272Z,95.21
2018-09-24T13:03:59.412Z,97.74
2018-09-24T13:06:33.677Z,100.00
2018-09-24T13:09:07.778Z,100.00
2018-09-24T13:11:41.757Z,100.00
2018-09-24T13:14:15.987Z,100.00
2018-09-24T13:16:50.016Z,98.71
2018-09-24T13:19:24.640Z,99.40
2018-09-24T13:21:59.049Z,97.34
2018-09-24T13:24:33.004Z,99.71
2018-09-24T13:27:07.341Z,100.00
2018-09-24T13:29:41.336Z,100.00
2018-09-24T13:32:15.492Z,96.97
2018-09-24T13:34:49.614Z,94.53
2018-09-24T13:37:23.770Z,93.11
2018-09-24T13:39:57.696Z,92.92
2018-09-24T13:42:31.697Z,90.33
2018-09-24T13:45:06.123Z,93.73
2018-09-24T13:47:40.232Z,91.64
2018-09-24T13:50:14.416Z,95.54
2018-09-24T13:52:48.340Z,96.29
2018-09-24T13:55:22.504Z,98.75
2018-09-24T13:57:56.726Z,100.00
2018-09-24T14:00:30.790Z,100.00
2018-09-24T14:03:04.846Z,100.00
2018-09-24T14:05:39.119Z,100.00
2018-09-24T14:08:13.118Z,100.00
2018-09-24T14:10:47.058Z,100.00
2018-09-24T14:13:21.071Z,100.00
2018-09-24T14:15:55.178Z,100.00
2018-09-24T14:18:29.657Z,100.00
2018-09-24T14:21:03.742Z,100.00
2018-09-24T14:23:38.148Z,100.00
2018-09-24T14:26:12.462Z,100.00
2018-09-24T14:28:46.692Z,100.00
2018-09-24T14:31:21.229Z,100.00
2018-09-24T14:33:55.473Z,100.00
2018-09-24T14:36:29.586Z,100.00
2018-09-24T14:39:03.515Z,100.00
2018-09-24T14:41:37.618Z,100.00
2018-09-24T14:44:11.850Z,100.00
2018-09-24T14:46:45.870Z,100.00
2018-09-24T14:49:19.836Z,100.00
2018-09-24T14:51:53.998Z,100.00
2018-09-24T14:54:28.030Z,100.00
2018-09-24T14:57:01.923Z,100.00
2018-09-24T14:59:35.842Z,100.00
2018-09-24T15:02:09.885Z,100.00
2018-09-24T15:04:43.906Z,100.00
2018-09-24T15:07:18.045Z,100.00
2018-09-24T15:09:52.030Z,100.00
2018-09-24T15:12:26.278Z,100.00
2018-09-24T15:15:00.390Z,100.00
2018-09-24T15:17:34.505Z,100.00
2018-09-24T15:20:08.539Z,100.00
2018-09-24T15:22:42.638Z,100.00
2018-09-24T15:25:16.770Z,100.00
2018-09-24T15:27:50.809Z,100.00
2018-09-24T15:30:24.834Z,100.00
2018-09-24T15:32:58.918Z,100.00
2018-09-24T15:35:33.100Z,100.00
2018-09-24T15:38:07.146Z,100.00
2018-09-24T15:40:41.121Z,100.00
2018-09-24T15:43:15.145Z,100.00
2018-09-24T15:45:49.123Z,100.00
2018-09-24T15:48:23.275Z,100.00
2018-09-24T15:50:57.213Z,100.00
2018-09-24T15:53:31.514Z,100.00
2018-09-24T15:56:05.496Z,100.00
2018-09-24T15:58:39.674Z,100.00
2018-09-24T16:01:13.938Z,100.00
2018-09-24T16:03:47.943Z,100.00
2018-09-24T16:06:22.041Z,100.00
2018-09-24T16:08:56.228Z,100.00
2018-09-24T16:11:30.093Z,100.00
2018-09-24T16:14:04.200Z,100.00
2018-09-24T16:16:38.170Z,100.00
2018-09-24T16:19:12.790Z,100.00
2018-09-24T16:21:46.932Z,100.00
2018-09-24T16:24:21.016Z,100.00
2018-09-24T16:26:55.020Z,100.00
2018-09-24T16:29:29.270Z,100.00
2018-09-24T16:32:03.520Z,100.00
2018-09-24T16:34:37.420Z,100.00
2018-09-24T16:37:11.719Z,100.00
2018-09-24T16:39:45.891Z,91.76
2018-09-24T16:42:19.911Z,70.78
2018-09-24T16:44:54.058Z,61.28
2018-09-24T16:47:28.303Z,58.44
2018-09-24T16:50:02.583Z,57.79
2018-09-24T16:52:36.718Z,56.33
2018-09-24T16:55:10.803Z,55.82
2018-09-24T16:57:45.035Z,56.00
2018-09-24T17:00:19.252Z,55.83
2018-09-24T17:02:53.435Z,56.04
2018-09-24T17:05:27.362Z,55.44
2018-09-24T17:08:01.681Z,56.24
2018-09-24T17:10:35.772Z,56.06
2018-09-24T17:13:09.900Z,55.72
2018-09-24T17:15:44.147Z,56.24
2018-09-24T17:18:18.260Z,55.98
2018-09-24T17:20:52.860Z,56.69
2018-09-24T17:23:27.222Z,56.15
2018-09-24T17:26:01.393Z,55.42
2018-09-24T17:28:35.334Z,56.26
2018-09-24T17:31:09.683Z,56.27
2018-09-24T17:33:43.887Z,55.89
2018-09-24T17:36:17.894Z,55.17
2018-09-24T17:38:52.194Z,54.96
2018-09-24T17:41:26.379Z,54.83
2018-09-24T17:44:00.554Z,54.74
2018-09-24T17:46:34.638Z,54.51
2018-09-24T17:49:08.626Z,54.42
2018-09-24T17:51:42.937Z,54.42
2018-09-24T17:54:16.972Z,54.29
2018-09-24T17:56:50.980Z,53.96
2018-09-24T17:59:25.161Z,54.28
2018-09-24T18:01:59.302Z,54.22
2018-09-24T18:04:33.444Z,53.94
2018-09-24T18:07:07.651Z,53.79
2018-09-24T18:09:41.788Z,53.52
2018-09-24T18:12:15.737Z,53.44
2018-09-24T18:14:49.884Z,53.58
2018-09-24T18:17:23.829Z,53.54
2018-09-24T18:19:58.173Z,53.64
2018-09-24T18:22:32.700Z,53.76
2018-09-24T18:25:06.713Z,53.33
2018-09-24T18:27:40.808Z,53.47
2018-09-24T18:30:14.943Z,53.59
2018-09-24T18:32:56.270Z,53.43
2018-09-24T18:35:30.254Z,53.63
2018-09-24T18:38:04.647Z,52.80
2018-09-24T18:40:38.790Z,53.22
2018-09-24T18:43:12.872Z,52.35
2018-09-24T18:45:46.896Z,52.62
2018-09-24T18:48:20.921Z,52.05
2018-09-24T18:50:55.138Z,53.06
2018-09-24T18:53:29.248Z,52.57
2018-09-24T18:56:03.390Z,52.78
2018-09-24T18:58:37.260Z,52.65
2018-09-24T19:01:11.537Z,53.20
2018-09-24T19:03:45.994Z,53.75
2018-09-24T19:06:20.087Z,52.89
2018-09-24T19:08:54.186Z,53.38
2018-09-24T19:11:28.290Z,54.36
2018-09-24T19:14:02.467Z,54.36
2018-09-24T19:16:36.627Z,54.30
2018-09-24T19:19:10.721Z,55.11
2018-09-24T19:21:44.752Z,54.72
2018-09-24T19:24:18.738Z,55.27
2018-09-24T19:26:53.364Z,55.20
2018-09-24T19:29:27.334Z,55.99
2018-09-24T19:32:01.610Z,56.46
2018-09-24T19:34:35.696Z,56.84
2018-09-24T19:37:09.745Z,57.35
2018-09-24T19:39:43.629Z,57.22
2018-09-24T19:42:17.733Z,57.54
2018-09-24T19:44:51.749Z,57.80
2018-09-24T19:47:25.664Z,58.79
2018-09-24T19:50:00.044Z,58.79
2018-09-24T19:52:33.947Z,59.25
2018-09-24T19:55:08.404Z,59.87
2018-09-24T19:57:42.512Z,59.37
2018-09-24T20:00:16.824Z,59.79
2018-09-24T20:02:51.258Z,59.82
2018-09-24T20:05:25.497Z,59.62
2018-09-24T20:07:59.674Z,59.93
2018-09-24T20:10:33.773Z,59.99
2018-09-24T20:13:08.072Z,60.67
2018-09-24T20:15:42.348Z,60.64
2018-09-24T20:18:16.445Z,60.46
2018-09-24T20:20:50.554Z,60.82
2018-09-24T20:23:25.005Z,60.15
2018-09-24T20:25:58.864Z,59.93
2018-09-24T20:28:33.176Z,60.29
2018-09-24T20:31:07.280Z,60.10
2018-09-24T20:33:41.363Z,60.42
2018-09-24T20:36:15.437Z,59.17
2018-09-24T20:38:49.379Z,60.73
2018-09-24T20:41:23.516Z,60.93
2018-09-24T20:43:57.528Z,61.13
2018-09-24T20:46:31.491Z,60.61
2018-09-24T20:49:05.408Z,61.82
2018-09-24T20:51:39.608Z,61.99
2018-09-24T20:54:13.496Z,61.13
2018-09-24T20:56:48.407Z,61.59
2018-09-24T20:59:22.513Z,61.29
2018-09-24T21:01:56.696Z,60.73
2018-09-24T21:04:30.901Z,61.67
2018-09-24T21:07:05.244Z,61.46
2018-09-24T21:09:39.247Z,60.79
2018-09-24T21:12:13.834Z,61.62
2018-09-24T21:14:48.518Z,61.62
2018-09-24T21:17:22.831Z,61.88
2018-09-24T21:19:57.045Z,61.09
2018-09-24T21:22:31.307Z,61.80
2018-09-24T21:25:05.599Z,62.27
2018-09-24T21:27:39.600Z,62.49
2018-09-24T21:30:14.126Z,62.53
2018-09-24T21:32:48.687Z,62.27
2018-09-24T21:35:22.669Z,62.60
2018-09-24T21:37:56.627Z,62.54
2018-09-24T21:40:30.720Z,62.93
2018-09-24T21:43:04.720Z,63.16
2018-09-24T21:45:38.672Z,63.43
2018-09-24T21:48:12.824Z,63.75
2018-09-24T21:50:47.082Z,63.97
2018-09-24T21:53:21.031Z,63.58
2018-09-24T21:55:55.418Z,64.01
2018-09-24T21:58:29.520Z,63.61
2018-09-24T22:01:03.462Z,64.16
2018-09-24T22:03:37.462Z,63.72
2018-09-24T22:06:11.908Z,64.56
2018-09-24T22:08:46.141Z,64.45
2018-09-24T22:11:20.309Z,64.96
2018-09-24T22:13:54.556Z,64.70
2018-09-24T22:16:28.767Z,64.90
2018-09-24T22:19:03.036Z,64.80
2018-09-24T22:21:37.493Z,65.81
2018-09-24T22:26:42.681Z,65.46
2018-09-24T22:29:16.859Z,66.32
2018-09-24T22:31:50.854Z,65.74
2018-09-24T22:34:24.836Z,65.69
2018-09-24T22:36:58.989Z,65.57
2018-09-24T22:39:33.002Z,65.77
2018-09-24T22:42:07.089Z,66.13
2018-09-24T22:44:41.067Z,66.23
2018-09-24T22:47:15.324Z,66.38
2018-09-24T22:49:49.436Z,66.67
2018-09-24T22:52:23.577Z,66.89
2018-09-24T22:54:57.616Z,66.68
2018-09-24T22:57:32.210Z,67.12
2018-09-24T23:00:06.239Z,66.66
2018-09-24T23:02:40.285Z,66.52
2018-09-24T23:05:14.184Z,68.00
2018-09-24T23:07:48.140Z,68.42
2018-09-24T23:10:22.217Z,68.05
2018-09-24T23:12:56.211Z,69.30
2018-09-24T23:15:30.234Z,70.27
2018-09-24T23:18:04.373Z,70.43
2018-09-24T23:20:38.505Z,70.94
2018-09-24T23:23:12.664Z,71.27
2018-09-24T23:25:46.888Z,72.52
2018-09-24T23:28:20.896Z,72.49
2018-09-24T23:30:54.979Z,72.56
2018-09-24T23:33:29.370Z,72.81
2018-09-24T23:36:03.515Z,72.88
2018-09-24T23:38:37.540Z,73.86
2018-09-24T23:41:11.886Z,74.35
2018-09-24T23:43:46.803Z,75.00
2018-09-24T23:46:21.221Z,75.36
2018-09-24T23:48:55.327Z,76.02
2018-09-24T23:51:29.780Z,76.35
2018-09-24T23:54:03.796Z,76.73
2018-09-24T23:56:38.228Z,77.16
2018-09-24T23:59:12.566Z,78.94
